sensor_id;sensor_type;location;lat;lon;timestamp;pressure;altitude;pressure_sealevel;temperature;humidity
19884;BME280;10104;50.732;10.174;2023-06-01T00:00:28;98238.28;;;14.31;59.36
19884;BME280;10104;50.732;10.174;2023-06-01T00:02:50;98243.81;;;14.29;59.22
19884;BME280;10104;50.732;10.174;2023-06-01T00:05:12;98236.44;;;14.31;58.72
19884;BME280;10104;50.732;10.174;2023-06-01T00:07:33;98233.16;;;14.36;58.91
19884;BME280;10104;50.732;10.174;2023-06-01T00:09:56;98233.81;;;14.38;58.63
19884;BME280;10104;50.732;10.174;2023-06-01T00:12:17;98231.28;;;14.16;59.99
19884;BME280;10104;50.732;10.174;2023-06-01T00:14:39;98230.28;;;14.17;59.61
19884;BME280;10104;50.732;10.174;2023-06-01T00:17:01;98226.75;;;14.04;60.58
19884;BME280;10104;50.732;10.174;2023-06-01T00:19:24;98221.78;;;13.74;62.67
19884;BME280;10104;50.732;10.174;2023-06-01T00:21:47;98234.84;;;13.63;62.00
19884;BME280;10104;50.732;10.174;2023-06-01T00:24:09;98230.59;;;13.75;60.77
19884;BME280;10104;50.732;10.174;2023-06-01T00:26:30;98221.16;;;13.79;60.43
19884;BME280;10104;50.732;10.174;2023-06-01T00:28:53;98221.78;;;13.81;60.00
19884;BME280;10104;50.732;10.174;2023-06-01T00:31:14;98223.00;;;13.78;59.71
19884;BME280;10104;50.732;10.174;2023-06-01T00:33:36;98220.75;;;13.75;60.32
19884;BME280;10104;50.732;10.174;2023-06-01T00:35:58;98225.38;;;13.54;62.34
19884;BME280;10104;50.732;10.174;2023-06-01T00:38:19;98221.06;;;13.53;61.27
19884;BME280;10104;50.732;10.174;2023-06-01T00:40:41;98221.81;;;13.40;63.06
19884;BME280;10104;50.732;10.174;2023-06-01T00:43:04;98223.66;;;13.33;62.41
19884;BME280;10104;50.732;10.174;2023-06-01T00:45:26;98213.66;;;13.07;63.74
19884;BME280;10104;50.732;10.174;2023-06-01T00:47:47;98216.88;;;13.03;63.14
19884;BME280;10104;50.732;10.174;2023-06-01T00:50:11;98215.56;;;13.13;62.07
19884;BME280;10104;50.732;10.174;2023-06-01T00:52:32;98216.03;;;13.23;61.48
19884;BME280;10104;50.732;10.174;2023-06-01T00:54:54;98212.97;;;13.26;61.12
19884;BME280;10104;50.732;10.174;2023-06-01T00:57:16;98207.41;;;13.21;61.05
19884;BME280;10104;50.732;10.174;2023-06-01T00:59:38;98213.38;;;13.23;60.81
19884;BME280;10104;50.732;10.174;2023-06-01T01:01:59;98208.69;;;12.97;63.59
19884;BME280;10104;50.732;10.174;2023-06-01T01:04:21;98216.84;;;12.89;63.37
19884;BME280;10104;50.732;10.174;2023-06-01T01:07:01;98214.88;;;13.05;62.12
19884;BME280;10104;50.732;10.174;2023-06-01T01:09:39;98215.31;;;13.08;61.17
19884;BME280;10104;50.732;10.174;2023-06-01T01:12:26;98213.81;;;12.99;62.36
19884;BME280;10104;50.732;10.174;2023-06-01T01:14:56;98215.81;;;12.63;64.57
19884;BME280;10104;50.732;10.174;2023-06-01T01:17:33;98214.50;;;12.80;63.65
19884;BME280;10104;50.732;10.174;2023-06-01T01:20:22;98214.31;;;12.81;62.71
19884;BME280;10104;50.732;10.174;2023-06-01T01:23:25;98214.50;;;12.80;62.01
19884;BME280;10104;50.732;10.174;2023-06-01T01:26:09;98215.13;;;12.82;61.37
19884;BME280;10104;50.732;10.174;2023-06-01T01:28:52;98221.84;;;12.78;61.40
19884;BME280;10104;50.732;10.174;2023-06-01T01:31:22;98226.50;;;12.48;65.48
19884;BME280;10104;50.732;10.174;2023-06-01T01:33:46;98225.78;;;12.33;66.01
19884;BME280;10104;50.732;10.174;2023-06-01T01:36:10;98226.78;;;12.32;65.42
19884;BME280;10104;50.732;10.174;2023-06-01T01:38:34;98232.41;;;12.43;64.27
19884;BME280;10104;50.732;10.174;2023-06-01T01:40:56;98220.66;;;12.52;64.04
19884;BME280;10104;50.732;10.174;2023-06-01T01:43:22;98220.78;;;12.44;65.14
19884;BME280;10104;50.732;10.174;2023-06-01T01:45:44;98215.63;;;12.15;67.78
19884;BME280;10104;50.732;10.174;2023-06-01T01:48:22;98215.56;;;12.08;65.93
19884;BME280;10104;50.732;10.174;2023-06-01T01:51:13;98214.09;;;11.85;68.53
19884;BME280;10104;50.732;10.174;2023-06-01T01:53:38;98209.56;;;11.85;66.98
19884;BME280;10104;50.732;10.174;2023-06-01T01:56:03;98216.25;;;11.96;65.54
19884;BME280;10104;50.732;10.174;2023-06-01T01:58:26;98215.66;;;12.00;64.79
19884;BME280;10104;50.732;10.174;2023-06-01T02:00:48;98210.25;;;12.08;64.49
19884;BME280;10104;50.732;10.174;2023-06-01T02:03:15;98196.81;;;12.16;63.82
19884;BME280;10104;50.732;10.174;2023-06-01T02:05:37;98198.28;;;11.98;66.13
19884;BME280;10104;50.732;10.174;2023-06-01T02:07:59;98198.09;;;11.99;65.37
19884;BME280;10104;50.732;10.174;2023-06-01T02:10:23;98191.31;;;11.75;67.36
19884;BME280;10104;50.732;10.174;2023-06-01T02:12:45;98190.25;;;11.55;68.73
19884;BME280;10104;50.732;10.174;2023-06-01T02:15:07;98195.81;;;11.60;67.61
19884;BME280;10104;50.732;10.174;2023-06-01T02:17:28;98198.81;;;11.72;66.38
19884;BME280;10104;50.732;10.174;2023-06-01T02:19:50;98197.47;;;11.76;65.60
19884;BME280;10104;50.732;10.174;2023-06-01T02:22:11;98189.88;;;11.58;68.43
19884;BME280;10104;50.732;10.174;2023-06-01T02:24:33;98191.31;;;11.61;68.10
19884;BME280;10104;50.732;10.174;2023-06-01T02:26:54;98188.84;;;11.74;66.81
19884;BME280;10104;50.732;10.174;2023-06-01T02:29:18;98191.69;;;11.72;66.64
19884;BME280;10104;50.732;10.174;2023-06-01T02:31:40;98199.16;;;11.48;69.33
19884;BME280;10104;50.732;10.174;2023-06-01T02:34:02;98205.22;;;11.27;69.87
19884;BME280;10104;50.732;10.174;2023-06-01T02:36:24;98197.59;;;11.39;67.55
19884;BME280;10104;50.732;10.174;2023-06-01T02:38:46;98193.63;;;11.49;66.78
19884;BME280;10104;50.732;10.174;2023-06-01T02:41:08;98194.03;;;11.46;67.34
19884;BME280;10104;50.732;10.174;2023-06-01T02:43:33;98196.22;;;11.43;67.36
19884;BME280;10104;50.732;10.174;2023-06-01T02:45:55;98186.16;;;11.53;66.35
19884;BME280;10104;50.732;10.174;2023-06-01T02:48:17;98189.25;;;11.56;65.75
19884;BME280;10104;50.732;10.174;2023-06-01T02:50:38;98187.72;;;11.47;67.29
19884;BME280;10104;50.732;10.174;2023-06-01T02:53:00;98189.81;;;11.37;68.03
19884;BME280;10104;50.732;10.174;2023-06-01T02:55:22;98188.84;;;11.23;68.78
19884;BME280;10104;50.732;10.174;2023-06-01T02:57:43;98188.41;;;11.05;69.83
19884;BME280;10104;50.732;10.174;2023-06-01T03:00:06;98178.19;;;11.17;68.38
19884;BME280;10104;50.732;10.174;2023-06-01T03:02:36;98181.19;;;11.28;67.46
19884;BME280;10104;50.732;10.174;2023-06-01T03:04:58;98177.31;;;11.31;66.54
19884;BME280;10104;50.732;10.174;2023-06-01T03:07:20;98176.97;;;11.34;66.61
19884;BME280;10104;50.732;10.174;2023-06-01T03:09:41;98172.91;;;11.38;66.16
19884;BME280;10104;50.732;10.174;2023-06-01T03:12:03;98173.63;;;11.47;66.21
19884;BME280;10104;50.732;10.174;2023-06-01T03:14:25;98172.50;;;11.56;67.34
19884;BME280;10104;50.732;10.174;2023-06-01T03:16:46;98168.53;;;11.30;69.16
19884;BME280;10104;50.732;10.174;2023-06-01T03:19:08;98175.13;;;11.20;69.00
19884;BME280;10104;50.732;10.174;2023-06-01T03:21:29;98172.00;;;11.31;67.99
19884;BME280;10104;50.732;10.174;2023-06-01T03:23:53;98173.09;;;11.36;67.45
19884;BME280;10104;50.732;10.174;2023-06-01T03:26:14;98171.34;;;11.44;67.17
19884;BME280;10104;50.732;10.174;2023-06-01T03:28:39;98170.50;;;11.07;71.40
19884;BME280;10104;50.732;10.174;2023-06-01T03:31:00;98167.03;;;10.92;70.91
19884;BME280;10104;50.732;10.174;2023-06-01T03:33:23;98166.13;;;10.85;70.99
19884;BME280;10104;50.732;10.174;2023-06-01T03:35:45;98175.53;;;10.87;70.35
19884;BME280;10104;50.732;10.174;2023-06-01T03:38:06;98174.88;;;11.15;68.95
19884;BME280;10104;50.732;10.174;2023-06-01T03:40:28;98186.00;;;11.25;67.90
19884;BME280;10104;50.732;10.174;2023-06-01T03:42:49;98180.88;;;11.23;67.34
19884;BME280;10104;50.732;10.174;2023-06-01T03:45:12;98169.00;;;11.34;66.84
19884;BME280;10104;50.732;10.174;2023-06-01T03:47:34;98173.56;;;11.40;66.63
19884;BME280;10104;50.732;10.174;2023-06-01T03:49:55;98174.88;;;11.15;68.68
19884;BME280;10104;50.732;10.174;2023-06-01T03:52:19;98182.44;;;11.18;67.87
19884;BME280;10104;50.732;10.174;2023-06-01T03:54:41;98176.50;;;11.30;67.17
19884;BME280;10104;50.732;10.174;2023-06-01T03:57:04;98169.25;;;11.39;66.49
19884;BME280;10104;50.732;10.174;2023-06-01T03:59:26;98171.72;;;11.41;66.45
19884;BME280;10104;50.732;10.174;2023-06-01T04:01:49;98170.91;;;11.40;66.34
19884;BME280;10104;50.732;10.174;2023-06-01T04:04:12;98180.97;;;11.30;67.19
19884;BME280;10104;50.732;10.174;2023-06-01T04:06:35;98179.94;;;11.46;66.45
19884;BME280;10104;50.732;10.174;2023-06-01T04:08:57;98179.88;;;11.39;66.83
19884;BME280;10104;50.732;10.174;2023-06-01T04:11:22;98170.78;;;11.48;66.49
19884;BME280;10104;50.732;10.174;2023-06-01T04:13:43;98182.44;;;11.32;69.37
19884;BME280;10104;50.732;10.174;2023-06-01T04:16:05;98175.66;;;11.30;69.73
19884;BME280;10104;50.732;10.174;2023-06-01T04:18:27;98174.38;;;11.41;68.34
19884;BME280;10104;50.732;10.174;2023-06-01T04:20:48;98173.81;;;11.45;68.19
19884;BME280;10104;50.732;10.174;2023-06-01T04:23:10;98172.91;;;11.53;67.57
19884;BME280;10104;50.732;10.174;2023-06-01T04:25:31;98179.97;;;11.67;67.39
19884;BME280;10104;50.732;10.174;2023-06-01T04:27:53;98171.25;;;11.73;66.78
19884;BME280;10104;50.732;10.174;2023-06-01T04:30:16;98164.63;;;11.77;67.59
19884;BME280;10104;50.732;10.174;2023-06-01T04:32:38;98172.41;;;11.64;70.65
19884;BME280;10104;50.732;10.174;2023-06-01T04:35:01;98167.81;;;11.72;69.68
19884;BME280;10104;50.732;10.174;2023-06-01T04:37:26;98166.56;;;11.90;68.60
19884;BME280;10104;50.732;10.174;2023-06-01T04:39:49;98171.94;;;11.96;68.14
19884;BME280;10104;50.732;10.174;2023-06-01T04:42:12;98175.28;;;12.05;67.85
19884;BME280;10104;50.732;10.174;2023-06-01T04:44:34;98165.38;;;12.13;67.62
19884;BME280;10104;50.732;10.174;2023-06-01T04:46:57;98165.41;;;12.20;67.30
19884;BME280;10104;50.732;10.174;2023-06-01T04:49:24;98168.19;;;12.33;67.25
19884;BME280;10104;50.732;10.174;2023-06-01T04:51:47;98168.47;;;12.45;67.88
19884;BME280;10104;50.732;10.174;2023-06-01T04:54:12;98161.38;;;12.52;67.99
19884;BME280;10104;50.732;10.174;2023-06-01T04:56:35;98172.97;;;12.44;69.06
19884;BME280;10104;50.732;10.174;2023-06-01T04:58:56;98167.94;;;12.56;68.72
19884;BME280;10104;50.732;10.174;2023-06-01T05:01:19;98175.38;;;12.67;68.68
19884;BME280;10104;50.732;10.174;2023-06-01T05:03:42;98170.34;;;12.79;68.61
19884;BME280;10104;50.732;10.174;2023-06-01T05:06:05;98164.09;;;12.93;69.00
19884;BME280;10104;50.732;10.174;2023-06-01T05:08:26;98162.25;;;12.93;68.47
19884;BME280;10104;50.732;10.174;2023-06-01T05:10:48;98163.91;;;12.94;68.33
19884;BME280;10104;50.732;10.174;2023-06-01T05:13:09;98170.31;;;13.07;68.20
19884;BME280;10104;50.732;10.174;2023-06-01T05:15:31;98168.31;;;13.15;68.32
19884;BME280;10104;50.732;10.174;2023-06-01T05:17:53;98166.69;;;13.14;68.05
19884;BME280;10104;50.732;10.174;2023-06-01T05:20:15;98160.81;;;13.25;68.11
19884;BME280;10104;50.732;10.174;2023-06-01T05:22:37;98158.78;;;13.34;68.03
19884;BME280;10104;50.732;10.174;2023-06-01T05:24:58;98169.84;;;13.38;68.07
19884;BME280;10104;50.732;10.174;2023-06-01T05:27:20;98166.81;;;13.47;68.06
19884;BME280;10104;50.732;10.174;2023-06-01T05:29:41;98153.97;;;13.57;68.57
19884;BME280;10104;50.732;10.174;2023-06-01T05:32:03;98157.25;;;13.66;68.10
19884;BME280;10104;50.732;10.174;2023-06-01T05:34:24;98155.22;;;13.74;68.54
19884;BME280;10104;50.732;10.174;2023-06-01T05:36:46;98157.91;;;13.81;68.18
19884;BME280;10104;50.732;10.174;2023-06-01T05:39:08;98155.66;;;13.85;68.39
19884;BME280;10104;50.732;10.174;2023-06-01T05:41:29;98152.38;;;13.96;68.43
19884;BME280;10104;50.732;10.174;2023-06-01T05:43:52;98148.53;;;14.05;68.81
19884;BME280;10104;50.732;10.174;2023-06-01T05:46:13;98151.34;;;13.90;70.81
19884;BME280;10104;50.732;10.174;2023-06-01T05:48:35;98148.09;;;14.08;69.54
19884;BME280;10104;50.732;10.174;2023-06-01T05:51:01;98151.38;;;14.10;69.65
19884;BME280;10104;50.732;10.174;2023-06-01T05:53:23;98159.59;;;14.22;69.31
19884;BME280;10104;50.732;10.174;2023-06-01T05:55:45;98153.66;;;14.46;68.85
19884;BME280;10104;50.732;10.174;2023-06-01T05:58:07;98151.19;;;14.57;69.10
19884;BME280;10104;50.732;10.174;2023-06-01T06:00:28;98152.19;;;14.70;68.79
19884;BME280;10104;50.732;10.174;2023-06-01T06:02:50;98157.69;;;14.88;68.99
19884;BME280;10104;50.732;10.174;2023-06-01T06:05:12;98165.28;;;15.04;68.79
19884;BME280;10104;50.732;10.174;2023-06-01T06:07:34;98161.31;;;15.13;68.96
19884;BME280;10104;50.732;10.174;2023-06-01T06:09:56;98161.09;;;15.21;68.12
19884;BME280;10104;50.732;10.174;2023-06-01T06:12:17;98164.75;;;15.33;67.89
19884;BME280;10104;50.732;10.174;2023-06-01T06:14:39;98156.28;;;15.43;68.61
19884;BME280;10104;50.732;10.174;2023-06-01T06:17:02;98151.59;;;15.38;71.02
19884;BME280;10104;50.732;10.174;2023-06-01T06:19:24;98149.31;;;15.55;68.81
19884;BME280;10104;50.732;10.174;2023-06-01T06:21:46;98152.47;;;15.70;69.31
19884;BME280;10104;50.732;10.174;2023-06-01T06:24:07;98154.63;;;15.87;68.68
19884;BME280;10104;50.732;10.174;2023-06-01T06:26:29;98148.00;;;15.96;68.16
19884;BME280;10104;50.732;10.174;2023-06-01T06:28:51;98147.94;;;16.09;68.00
19884;BME280;10104;50.732;10.174;2023-06-01T06:31:12;98145.31;;;16.27;68.67
19884;BME280;10104;50.732;10.174;2023-06-01T06:33:35;98151.84;;;16.31;68.59
19884;BME280;10104;50.732;10.174;2023-06-01T06:35:56;98152.34;;;16.46;67.84
19884;BME280;10104;50.732;10.174;2023-06-01T06:38:18;98150.81;;;16.57;67.42
19884;BME280;10104;50.732;10.174;2023-06-01T06:40:42;98156.44;;;16.74;66.80
19884;BME280;10104;50.732;10.174;2023-06-01T06:43:04;98151.78;;;16.87;67.17
19884;BME280;10104;50.732;10.174;2023-06-01T06:45:25;98154.25;;;16.89;66.41
19884;BME280;10104;50.732;10.174;2023-06-01T06:47:47;98154.69;;;17.04;66.35
19884;BME280;10104;50.732;10.174;2023-06-01T06:50:09;98155.75;;;17.21;65.68
19884;BME280;10104;50.732;10.174;2023-06-01T06:52:31;98157.34;;;17.40;65.91
19884;BME280;10104;50.732;10.174;2023-06-01T06:54:54;98153.91;;;17.52;65.31
19884;BME280;10104;50.732;10.174;2023-06-01T06:57:15;98154.28;;;17.55;65.74
19884;BME280;10104;50.732;10.174;2023-06-01T06:59:37;98152.63;;;17.72;65.16
19884;BME280;10104;50.732;10.174;2023-06-01T07:01:58;98161.09;;;17.88;63.97
19884;BME280;10104;50.732;10.174;2023-06-01T07:04:20;98158.56;;;18.04;63.86
19884;BME280;10104;50.732;10.174;2023-06-01T07:06:42;98145.06;;;18.11;62.12
19884;BME280;10104;50.732;10.174;2023-06-01T07:09:04;98144.97;;;18.29;62.26
19884;BME280;10104;50.732;10.174;2023-06-01T07:11:27;98148.75;;;18.51;61.65
19884;BME280;10104;50.732;10.174;2023-06-01T07:13:49;98145.28;;;18.74;60.13
19884;BME280;10104;50.732;10.174;2023-06-01T07:16:10;98142.09;;;18.89;60.10
19884;BME280;10104;50.732;10.174;2023-06-01T07:18:32;98147.59;;;19.06;60.13
19884;BME280;10104;50.732;10.174;2023-06-01T07:20:54;98150.38;;;19.11;60.07
19884;BME280;10104;50.732;10.174;2023-06-01T07:23:15;98144.19;;;19.10;59.75
19884;BME280;10104;50.732;10.174;2023-06-01T07:25:38;98147.03;;;19.32;59.28
19884;BME280;10104;50.732;10.174;2023-06-01T07:28:00;98150.31;;;19.46;59.46
19884;BME280;10104;50.732;10.174;2023-06-01T07:30:28;98138.69;;;19.68;57.06
19884;BME280;10104;50.732;10.174;2023-06-01T07:32:49;98134.31;;;19.79;57.07
19884;BME280;10104;50.732;10.174;2023-06-01T07:35:11;98133.25;;;19.80;58.08
19884;BME280;10104;50.732;10.174;2023-06-01T07:37:33;98137.16;;;19.89;56.44
19884;BME280;10104;50.732;10.174;2023-06-01T07:39:55;98142.53;;;19.89;57.46
19884;BME280;10104;50.732;10.174;2023-06-01T07:42:16;98147.94;;;20.06;55.84
19884;BME280;10104;50.732;10.174;2023-06-01T07:44:38;98139.25;;;20.15;56.71
19884;BME280;10104;50.732;10.174;2023-06-01T07:46:59;98135.53;;;20.33;56.29
19884;BME280;10104;50.732;10.174;2023-06-01T07:49:21;98133.16;;;20.53;55.06
19884;BME280;10104;50.732;10.174;2023-06-01T07:51:43;98134.53;;;20.56;56.68
19884;BME280;10104;50.732;10.174;2023-06-01T07:54:05;98129.97;;;20.73;54.34
19884;BME280;10104;50.732;10.174;2023-06-01T07:56:26;98130.09;;;20.83;54.49
19884;BME280;10104;50.732;10.174;2023-06-01T07:58:48;98132.66;;;20.73;53.95
19884;BME280;10104;50.732;10.174;2023-06-01T08:01:11;98127.81;;;20.92;54.22
19884;BME280;10104;50.732;10.174;2023-06-01T08:03:32;98131.75;;;20.84;54.64
19884;BME280;10104;50.732;10.174;2023-06-01T08:05:55;98123.13;;;21.04;53.87
19884;BME280;10104;50.732;10.174;2023-06-01T08:08:19;98125.13;;;21.14;53.61
19884;BME280;10104;50.732;10.174;2023-06-01T08:10:42;98127.09;;;21.18;55.18
19884;BME280;10104;50.732;10.174;2023-06-01T08:13:03;98126.56;;;21.16;56.32
19884;BME280;10104;50.732;10.174;2023-06-01T08:15:25;98127.53;;;21.32;55.09
19884;BME280;10104;50.732;10.174;2023-06-01T08:17:47;98126.25;;;21.34;52.94
19884;BME280;10104;50.732;10.174;2023-06-01T08:20:10;98128.94;;;21.34;53.25
19884;BME280;10104;50.732;10.174;2023-06-01T08:22:35;98124.97;;;21.42;54.11
19884;BME280;10104;50.732;10.174;2023-06-01T08:24:57;98122.88;;;21.49;52.55
19884;BME280;10104;50.732;10.174;2023-06-01T08:27:20;98118.38;;;21.55;53.68
19884;BME280;10104;50.732;10.174;2023-06-01T08:29:46;98119.19;;;21.55;50.78
19884;BME280;10104;50.732;10.174;2023-06-01T08:32:13;98120.56;;;21.58;50.67
19884;BME280;10104;50.732;10.174;2023-06-01T08:34:35;98115.91;;;21.75;51.37
19884;BME280;10104;50.732;10.174;2023-06-01T08:36:56;98113.81;;;21.82;49.50
19884;BME280;10104;50.732;10.174;2023-06-01T08:39:24;98114.44;;;21.89;48.71
19884;BME280;10104;50.732;10.174;2023-06-01T08:41:56;98113.97;;;21.97;46.02
19884;BME280;10104;50.732;10.174;2023-06-01T08:44:22;98119.66;;;21.96;47.32
19884;BME280;10104;50.732;10.174;2023-06-01T08:46:47;98116.47;;;22.04;46.64
19884;BME280;10104;50.732;10.174;2023-06-01T08:49:10;98111.50;;;22.23;46.53
19884;BME280;10104;50.732;10.174;2023-06-01T08:51:33;98102.34;;;22.24;46.18
19884;BME280;10104;50.732;10.174;2023-06-01T08:54:00;98105.63;;;22.31;44.83
19884;BME280;10104;50.732;10.174;2023-06-01T08:56:27;98102.13;;;22.30;44.61
19884;BME280;10104;50.732;10.174;2023-06-01T08:58:49;98102.09;;;22.25;42.69
19884;BME280;10104;50.732;10.174;2023-06-01T09:01:16;98104.56;;;22.32;44.19
19884;BME280;10104;50.732;10.174;2023-06-01T09:03:39;98094.91;;;22.41;44.04
19884;BME280;10104;50.732;10.174;2023-06-01T09:06:01;98088.59;;;22.62;43.81
19884;BME280;10104;50.732;10.174;2023-06-01T09:08:24;98091.63;;;22.71;44.87
19884;BME280;10104;50.732;10.174;2023-06-01T09:10:45;98087.41;;;22.85;42.37
19884;BME280;10104;50.732;10.174;2023-06-01T09:13:07;98093.94;;;22.94;42.34
19884;BME280;10104;50.732;10.174;2023-06-01T09:15:29;98089.72;;;23.13;42.63
19884;BME280;10104;50.732;10.174;2023-06-01T09:17:52;98085.66;;;23.21;40.64
19884;BME280;10104;50.732;10.174;2023-06-01T09:20:26;98087.06;;;23.33;42.28
19884;BME280;10104;50.732;10.174;2023-06-01T09:22:48;98085.47;;;23.32;42.46
19884;BME280;10104;50.732;10.174;2023-06-01T09:25:10;98083.59;;;23.43;44.21
19884;BME280;10104;50.732;10.174;2023-06-01T09:30:06;98074.50;;;23.69;43.89
19884;BME280;10104;50.732;10.174;2023-06-01T09:32:28;98071.78;;;23.64;41.65
19884;BME280;10104;50.732;10.174;2023-06-01T09:34:50;98069.09;;;23.74;41.85
19884;BME280;10104;50.732;10.174;2023-06-01T09:37:11;98066.66;;;23.83;40.81
19884;BME280;10104;50.732;10.174;2023-06-01T09:39:33;98060.44;;;24.03;41.90
19884;BME280;10104;50.732;10.174;2023-06-01T09:41:59;98061.25;;;24.03;41.94
19884;BME280;10104;50.732;10.174;2023-06-01T09:44:37;98060.47;;;24.33;42.51
19884;BME280;10104;50.732;10.174;2023-06-01T09:47:01;98058.84;;;24.42;41.26
19884;BME280;10104;50.732;10.174;2023-06-01T09:49:27;98062.59;;;24.51;41.57
19884;BME280;10104;50.732;10.174;2023-06-01T09:51:49;98049.34;;;24.55;41.63
19884;BME280;10104;50.732;10.174;2023-06-01T09:54:21;98048.78;;;24.68;41.32
19884;BME280;10104;50.732;10.174;2023-06-01T09:56:43;98049.88;;;24.62;41.30
19884;BME280;10104;50.732;10.174;2023-06-01T09:59:08;98041.16;;;24.70;41.40
19884;BME280;10104;50.732;10.174;2023-06-01T10:01:31;98047.09;;;24.77;40.87
19884;BME280;10104;50.732;10.174;2023-06-01T10:03:54;98046.56;;;24.80;40.66
19884;BME280;10104;50.732;10.174;2023-06-01T10:06:17;98042.69;;;25.12;41.07
19884;BME280;10104;50.732;10.174;2023-06-01T10:08:40;98043.91;;;25.34;41.77
19884;BME280;10104;50.732;10.174;2023-06-01T10:11:02;98036.06;;;25.33;38.63
19884;BME280;10104;50.732;10.174;2023-06-01T10:13:24;98042.53;;;25.37;41.72
19884;BME280;10104;50.732;10.174;2023-06-01T10:15:46;98045.72;;;25.54;41.63
19884;BME280;10104;50.732;10.174;2023-06-01T10:18:07;98035.06;;;25.68;42.54
19884;BME280;10104;50.732;10.174;2023-06-01T10:20:33;98041.75;;;25.81;41.37
19884;BME280;10104;50.732;10.174;2023-06-01T10:22:55;98041.97;;;25.89;40.92
19884;BME280;10104;50.732;10.174;2023-06-01T10:25:18;98037.22;;;25.71;40.68
19884;BME280;10104;50.732;10.174;2023-06-01T10:27:45;98039.06;;;25.75;39.06
19884;BME280;10104;50.732;10.174;2023-06-01T10:30:12;98037.38;;;25.85;36.64
19884;BME280;10104;50.732;10.174;2023-06-01T10:34:59;98039.06;;;25.75;38.43
19884;BME280;10104;50.732;10.174;2023-06-01T10:37:21;98025.59;;;25.99;37.56
19884;BME280;10104;50.732;10.174;2023-06-01T10:39:43;98033.13;;;26.07;37.13
19884;BME280;10104;50.732;10.174;2023-06-01T10:47:01;98015.97;;;26.70;37.94
19884;BME280;10104;50.732;10.174;2023-06-01T10:49:23;98014.97;;;26.89;34.39
19884;BME280;10104;50.732;10.174;2023-06-01T10:51:44;98017.88;;;26.93;36.63
19884;BME280;10104;50.732;10.174;2023-06-01T10:54:26;98020.94;;;27.10;34.40
19884;BME280;10104;50.732;10.174;2023-06-01T10:59:41;98015.00;;;26.84;34.90
19884;BME280;10104;50.732;10.174;2023-06-01T11:02:04;98015.81;;;27.09;35.06
19884;BME280;10104;50.732;10.174;2023-06-01T11:04:36;98017.16;;;27.49;34.94
19884;BME280;10104;50.732;10.174;2023-06-01T11:07:37;98013.28;;;27.55;33.16
19884;BME280;10104;50.732;10.174;2023-06-01T11:09:59;97999.81;;;27.63;32.46
19884;BME280;10104;50.732;10.174;2023-06-01T11:12:21;98010.56;;;27.55;33.79
19884;BME280;10104;50.732;10.174;2023-06-01T11:15:08;98003.03;;;27.65;33.00
19884;BME280;10104;50.732;10.174;2023-06-01T11:17:33;98004.19;;;27.78;34.02
19884;BME280;10104;50.732;10.174;2023-06-01T11:19:59;98001.19;;;27.80;31.57
19884;BME280;10104;50.732;10.174;2023-06-01T11:22:24;97996.00;;;27.97;32.71
19884;BME280;10104;50.732;10.174;2023-06-01T11:24:46;97994.38;;;28.28;33.52
19884;BME280;10104;50.732;10.174;2023-06-01T11:27:12;98004.41;;;28.33;30.87
19884;BME280;10104;50.732;10.174;2023-06-01T11:29:34;97991.72;;;28.69;28.16
19884;BME280;10104;50.732;10.174;2023-06-01T11:31:58;98001.81;;;28.82;29.32
19884;BME280;10104;50.732;10.174;2023-06-01T11:34:30;97994.22;;;28.66;29.56
19884;BME280;10104;50.732;10.174;2023-06-01T11:36:52;97991.53;;;29.07;29.84
19884;BME280;10104;50.732;10.174;2023-06-01T11:41:41;97998.53;;;29.49;27.71
19884;BME280;10104;50.732;10.174;2023-06-01T11:44:03;97989.22;;;29.72;28.13
19884;BME280;10104;50.732;10.174;2023-06-01T11:46:25;97985.63;;;30.30;27.44
19884;BME280;10104;50.732;10.174;2023-06-01T11:49:05;97992.72;;;30.39;28.28
19884;BME280;10104;50.732;10.174;2023-06-01T11:51:31;97982.06;;;31.08;26.68
19884;BME280;10104;50.732;10.174;2023-06-01T11:53:53;97982.44;;;31.32;25.19
19884;BME280;10104;50.732;10.174;2023-06-01T11:56:16;97986.75;;;32.75;22.68
19884;BME280;10104;50.732;10.174;2023-06-01T11:58:38;97984.78;;;33.34;23.06
19884;BME280;10104;50.732;10.174;2023-06-01T12:01:02;97986.22;;;33.19;22.89
19884;BME280;10104;50.732;10.174;2023-06-01T12:03:24;97979.03;;;33.68;22.89
19884;BME280;10104;50.732;10.174;2023-06-01T12:05:46;97990.50;;;34.24;22.94
19884;BME280;10104;50.732;10.174;2023-06-01T12:08:29;97985.16;;;34.64;22.86
19884;BME280;10104;50.732;10.174;2023-06-01T12:10:52;97980.16;;;34.90;22.66
19884;BME280;10104;50.732;10.174;2023-06-01T12:13:15;97976.47;;;35.11;23.63
19884;BME280;10104;50.732;10.174;2023-06-01T12:15:37;97972.47;;;35.73;23.86
19884;BME280;10104;50.732;10.174;2023-06-01T12:17:59;97968.56;;;36.17;22.97
19884;BME280;10104;50.732;10.174;2023-06-01T12:20:32;97969.72;;;35.88;23.36
19884;BME280;10104;50.732;10.174;2023-06-01T12:22:54;97958.25;;;36.30;23.08
19884;BME280;10104;50.732;10.174;2023-06-01T12:25:16;97965.84;;;36.05;22.95
19884;BME280;10104;50.732;10.174;2023-06-01T12:27:40;97958.19;;;36.26;22.32
19884;BME280;10104;50.732;10.174;2023-06-01T12:30:01;97961.06;;;36.02;23.24
19884;BME280;10104;50.732;10.174;2023-06-01T12:32:37;97957.84;;;36.59;21.89
19884;BME280;10104;50.732;10.174;2023-06-01T12:35:03;97953.13;;;36.75;22.17
19884;BME280;10104;50.732;10.174;2023-06-01T12:37:27;97949.56;;;36.75;21.45
19884;BME280;10104;50.732;10.174;2023-06-01T12:39:52;97942.63;;;37.70;21.71
19884;BME280;10104;50.732;10.174;2023-06-01T12:42:15;97946.16;;;37.51;20.92
19884;BME280;10104;50.732;10.174;2023-06-01T12:44:37;97943.81;;;37.92;20.87
19884;BME280;10104;50.732;10.174;2023-06-01T12:47:00;97938.44;;;37.80;20.05